Terminal Aerodrome Forecast
Issued by NWS Tuscon, AZ

Home | Current Version | Previous Version | Text Only | Print | Product List | Glossary On
Versions: 1 2 3 4 5 6 7 8 9 10 11 12 13 14 15 16 17 18 19
000
FTUS45 KTWC 031120
TAFDUG
TAF
KDUG 031120Z 0312/0412 07007KT P6SM BKN100 OVC250
      TEMPO 0312/0315 03014G24KT -RA
     FM031800 32007KT P6SM VCSH SCT080 SCT250
     FM032200 35011G19KT P6SM VCSH SCT080 BKN250
     FM040300 35008KT P6SM BKN100=

USA.gov is the U.S. government's official web portal to all federal, state and local government web resources and services.